createdAt,value
2023-02-16T00:01:26.664Z,79.03
2023-02-16T00:03:58.487Z,78.46
2023-02-16T00:06:29.659Z,77.51
2023-02-16T00:08:59.643Z,77.53
2023-02-16T00:11:53.922Z,77.92
2023-02-16T00:14:26.916Z,78.29
2023-02-16T00:16:58.502Z,78.07
2023-02-16T00:19:34.112Z,78.04
2023-02-16T00:22:06.434Z,77.77
2023-02-16T00:24:35.954Z,78.66
2023-02-16T00:27:14.375Z,77.87
2023-02-16T00:29:45.942Z,78.37
2023-02-16T00:32:15.977Z,78.44
2023-02-16T00:34:46.986Z,78.86
2023-02-16T00:37:17.413Z,78.42
2023-02-16T00:39:47.260Z,78.55
2023-02-16T00:42:25.290Z,79.40
2023-02-16T00:44:58.075Z,80.01
2023-02-16T00:47:47.399Z,79.06
2023-02-16T00:50:21.287Z,79.40
2023-02-16T00:52:51.355Z,78.39
2023-02-16T00:55:24.201Z,78.72
2023-02-16T00:58:14.495Z,79.06
2023-02-16T01:00:48.374Z,78.86
2023-02-16T01:03:22.128Z,78.66
2023-02-16T01:06:12.065Z,78.41
2023-02-16T01:09:00.456Z,78.54
2023-02-16T01:11:30.373Z,79.81
2023-02-16T01:14:00.068Z,78.76
2023-02-16T01:16:51.002Z,79.19
2023-02-16T01:19:23.223Z,79.55
2023-02-16T01:21:52.358Z,79.57
2023-02-16T01:24:22.456Z,79.70
2023-02-16T01:26:52.757Z,79.37
2023-02-16T01:29:23.485Z,79.13
2023-02-16T01:31:57.020Z,79.02
2023-02-16T01:34:26.829Z,79.16
2023-02-16T01:36:55.955Z,79.15
2023-02-16T01:39:26.152Z,79.26
2023-02-16T01:41:59.259Z,78.35
2023-02-16T01:44:46.955Z,78.01
2023-02-16T01:47:29.748Z,78.62
2023-02-16T01:50:03.375Z,80.19
2023-02-16T01:52:44.247Z,81.23
2023-02-16T01:55:18.273Z,81.91
2023-02-16T01:58:12.104Z,81.95
2023-02-16T02:00:56.895Z,81.58
2023-02-16T02:03:52.631Z,81.56
2023-02-16T02:06:35.617Z,82.14
2023-02-16T02:09:17.760Z,82.08
2023-02-16T02:11:53.045Z,81.81
2023-02-16T02:14:33.796Z,82.89
2023-02-16T02:17:18.433Z,83.95
2023-02-16T02:20:06.510Z,83.27
2023-02-16T02:23:29.915Z,82.68
2023-02-16T02:26:39.665Z,84.57
2023-02-16T02:29:52.116Z,83.55
2023-02-16T02:32:27.903Z,83.57
2023-02-16T02:35:24.656Z,82.93
2023-02-16T02:38:04.672Z,83.25
2023-02-16T02:40:45.794Z,83.08
2023-02-16T02:43:40.042Z,82.63
2023-02-16T02:46:35.729Z,82.57
2023-02-16T02:49:05.846Z,82.82
2023-02-16T02:51:40.965Z,84.16
2023-02-16T02:54:38.975Z,83.07
2023-02-16T02:57:38.724Z,82.58
2023-02-16T03:00:44.914Z,82.01
2023-02-16T03:03:24.644Z,81.97
2023-02-16T03:06:09.128Z,82.82
2023-02-16T03:08:44.214Z,83.10
2023-02-16T03:11:38.040Z,82.70
2023-02-16T03:14:32.776Z,83.19
2023-02-16T03:17:29.629Z,83.41
2023-02-16T03:20:20.943Z,83.32
2023-02-16T03:23:10.769Z,84.62
2023-02-16T03:26:00.181Z,83.96
2023-02-16T03:28:50.823Z,83.68
2023-02-16T03:31:29.596Z,84.57
2023-02-16T03:33:59.830Z,84.92
2023-02-16T03:36:33.970Z,84.62
2023-02-16T03:39:06.249Z,84.36
2023-02-16T03:41:42.195Z,84.59
2023-02-16T03:44:11.559Z,83.95
2023-02-16T03:46:41.651Z,84.22
2023-02-16T03:49:12.893Z,84.06
2023-02-16T03:51:43.063Z,84.72
2023-02-16T03:54:13.602Z,84.89
2023-02-16T03:56:43.213Z,84.32
2023-02-16T03:59:13.086Z,84.76
2023-02-16T04:01:43.136Z,84.47
2023-02-16T04:04:13.241Z,84.08
2023-02-16T04:06:43.564Z,84.48
2023-02-16T04:09:13.286Z,90.06
2023-02-16T04:12:02.413Z,86.93
2023-02-16T04:14:32.593Z,85.85
2023-02-16T04:17:04.293Z,85.02
2023-02-16T04:19:34.124Z,85.05
2023-02-16T04:22:03.143Z,85.14
2023-02-16T04:24:32.846Z,85.13
2023-02-16T04:27:02.186Z,84.81
2023-02-16T04:29:32.389Z,84.08
2023-02-16T04:32:05.498Z,84.96
2023-02-16T04:34:34.753Z,84.66
2023-02-16T04:37:06.499Z,84.90
2023-02-16T04:39:36.391Z,84.71
2023-02-16T04:42:06.677Z,84.10
2023-02-16T04:44:37.401Z,84.31
2023-02-16T04:47:07.029Z,84.32
2023-02-16T04:49:36.933Z,83.88
2023-02-16T04:52:07.414Z,83.65
2023-02-16T04:54:37.308Z,83.76
2023-02-16T04:57:07.026Z,84.06
2023-02-16T04:59:36.811Z,84.41
2023-02-16T05:02:06.568Z,84.60
2023-02-16T05:04:36.456Z,84.68
2023-02-16T05:07:06.990Z,84.99
2023-02-16T05:09:37.863Z,85.32
2023-02-16T05:12:26.319Z,84.68
2023-02-16T05:14:56.550Z,85.12
2023-02-16T05:17:27.960Z,85.18
2023-02-16T05:20:01.964Z,85.34
2023-02-16T05:22:34.941Z,85.61
2023-02-16T05:25:04.289Z,85.48
2023-02-16T05:27:36.173Z,85.95
2023-02-16T05:30:07.710Z,85.91
2023-02-16T05:32:36.930Z,86.16
2023-02-16T05:35:07.011Z,85.72
2023-02-16T05:37:36.586Z,85.14
2023-02-16T05:40:07.762Z,85.76
2023-02-16T05:42:37.048Z,85.40
2023-02-16T05:45:08.173Z,86.03
2023-02-16T05:47:38.084Z,85.73
2023-02-16T05:50:07.985Z,86.13
2023-02-16T05:52:37.152Z,86.58
2023-02-16T05:55:07.685Z,85.65
2023-02-16T05:57:37.599Z,86.06
2023-02-16T06:00:09.016Z,86.58
2023-02-16T06:02:39.055Z,85.98
2023-02-16T06:05:09.645Z,86.37
2023-02-16T06:07:38.817Z,86.80
2023-02-16T06:10:10.575Z,86.29
2023-02-16T06:12:40.089Z,86.27
2023-02-16T06:15:10.747Z,86.44
2023-02-16T06:17:40.436Z,86.39
2023-02-16T06:20:11.336Z,87.03
2023-02-16T06:22:40.810Z,88.28
2023-02-16T06:25:10.925Z,87.07
2023-02-16T06:27:41.486Z,87.17
2023-02-16T06:30:12.928Z,87.33
2023-02-16T06:32:42.438Z,87.44
2023-02-16T06:35:12.525Z,87.50
2023-02-16T06:37:42.046Z,87.93
2023-02-16T06:40:16.721Z,87.76
2023-02-16T06:42:46.668Z,87.61
2023-02-16T06:45:16.690Z,87.39
2023-02-16T06:47:46.666Z,86.87
2023-02-16T06:50:18.318Z,86.21
2023-02-16T06:52:47.695Z,85.74
2023-02-16T06:55:17.845Z,85.61
2023-02-16T06:57:47.798Z,85.15
2023-02-16T07:00:17.629Z,84.90
2023-02-16T07:02:47.381Z,84.66
2023-02-16T07:05:18.001Z,84.56
2023-02-16T07:07:47.969Z,84.79
2023-02-16T07:10:18.582Z,85.25
2023-02-16T07:12:50.030Z,84.76
2023-02-16T07:15:20.885Z,84.40
2023-02-16T07:17:50.993Z,85.16
2023-02-16T07:20:21.422Z,84.83
2023-02-16T07:22:50.538Z,84.47
2023-02-16T07:25:20.107Z,84.84
2023-02-16T07:27:51.529Z,84.92
2023-02-16T07:30:21.816Z,84.64
2023-02-16T07:32:51.635Z,84.38
2023-02-16T07:35:23.363Z,83.78
2023-02-16T07:37:53.401Z,83.89
2023-02-16T07:40:23.188Z,83.62
2023-02-16T07:42:52.474Z,83.78
2023-02-16T07:45:22.338Z,83.70
2023-02-16T07:47:52.259Z,83.93
2023-02-16T07:50:21.753Z,83.89
2023-02-16T07:52:52.690Z,84.67
2023-02-16T07:55:22.286Z,83.97
2023-02-16T07:57:55.909Z,83.80
2023-02-16T08:00:27.374Z,83.77
2023-02-16T08:02:57.016Z,83.74
2023-02-16T08:05:27.356Z,83.90
2023-02-16T08:07:56.982Z,84.12
2023-02-16T08:10:27.125Z,84.10
2023-02-16T08:12:56.423Z,83.79
2023-02-16T08:15:26.553Z,84.17
2023-02-16T08:17:55.935Z,83.53
2023-02-16T08:20:43.181Z,83.27
2023-02-16T08:23:15.460Z,83.92
2023-02-16T08:25:46.436Z,83.58
2023-02-16T08:28:16.026Z,83.78
2023-02-16T08:30:45.248Z,83.56
2023-02-16T08:33:15.600Z,82.63
2023-02-16T08:35:45.615Z,82.11
2023-02-16T08:38:17.943Z,82.38
2023-02-16T08:40:51.896Z,83.03
2023-02-16T08:43:22.931Z,83.05
2023-02-16T08:45:53.757Z,82.51
2023-02-16T08:48:23.908Z,82.23
2023-02-16T08:50:55.403Z,82.25
2023-02-16T08:53:25.988Z,82.26
2023-02-16T08:55:59.975Z,82.58
2023-02-16T08:58:30.430Z,82.97
2023-02-16T09:01:06.348Z,82.62
2023-02-16T09:03:39.002Z,82.15
2023-02-16T09:06:10.675Z,82.26
2023-02-16T09:08:42.372Z,82.32
2023-02-16T09:11:14.636Z,81.43
2023-02-16T09:13:45.332Z,81.58
2023-02-16T09:16:18.657Z,82.18
2023-02-16T09:18:49.615Z,82.14
2023-02-16T09:21:23.392Z,82.10
2023-02-16T09:23:59.637Z,81.68
2023-02-16T09:26:33.601Z,82.04
2023-02-16T09:29:04.164Z,81.79
2023-02-16T09:31:37.687Z,81.91
2023-02-16T09:34:16.632Z,81.78
2023-02-16T09:36:47.874Z,81.80
2023-02-16T09:39:19.076Z,81.58
2023-02-16T09:42:05.501Z,81.65
2023-02-16T09:44:55.208Z,81.65
2023-02-16T09:47:31.419Z,81.13
2023-02-16T09:50:13.610Z,80.90
2023-02-16T09:53:10.262Z,81.00
2023-02-16T09:56:05.319Z,80.94
2023-02-16T09:59:13.350Z,80.85
2023-02-16T10:01:59.064Z,81.07
2023-02-16T10:04:31.905Z,80.76
2023-02-16T10:07:34.043Z,80.54
2023-02-16T10:10:08.941Z,80.91
2023-02-16T10:12:44.313Z,80.74
2023-02-16T10:15:20.481Z,80.70
2023-02-16T10:18:02.890Z,80.83
2023-02-16T10:20:38.042Z,80.81
2023-02-16T10:23:27.965Z,81.11
2023-02-16T10:26:14.082Z,80.99
2023-02-16T10:28:55.930Z,81.35
2023-02-16T10:31:31.671Z,81.30
2023-02-16T10:34:35.564Z,81.27
2023-02-16T10:37:28.765Z,81.12
2023-02-16T10:40:01.400Z,81.12
2023-02-16T10:42:44.668Z,81.35
2023-02-16T10:45:14.443Z,81.00
2023-02-16T10:47:47.696Z,80.56
2023-02-16T10:50:27.014Z,80.65
2023-02-16T10:53:13.255Z,80.45
2023-02-16T10:55:42.972Z,80.61
2023-02-16T10:58:27.125Z,80.38
2023-02-16T11:01:37.732Z,80.60
2023-02-16T11:04:36.391Z,80.42
2023-02-16T11:07:23.679Z,80.13
2023-02-16T11:09:56.111Z,80.12
2023-02-16T11:12:54.529Z,79.87
2023-02-16T11:15:27.366Z,79.74
2023-02-16T11:18:08.680Z,79.41
2023-02-16T11:20:48.182Z,80.34
2023-02-16T11:23:29.027Z,80.48
2023-02-16T11:26:10.620Z,80.63
2023-02-16T11:28:47.196Z,80.13
2023-02-16T11:31:22.002Z,80.10
2023-02-16T11:34:12.057Z,80.09
2023-02-16T11:37:16.062Z,79.86
2023-02-16T11:39:54.514Z,79.83
2023-02-16T11:42:44.584Z,80.06
2023-02-16T11:45:33.255Z,81.22
2023-02-16T11:48:07.745Z,81.17
2023-02-16T11:50:41.443Z,81.28
2023-02-16T11:53:12.048Z,81.21
2023-02-16T11:55:48.422Z,81.16
2023-02-16T11:58:20.296Z,80.77
2023-02-16T12:01:11.535Z,80.53
2023-02-16T12:03:58.408Z,80.45
2023-02-16T12:07:02.064Z,80.18
2023-02-16T12:09:31.729Z,79.98
2023-02-16T12:12:23.375Z,79.51
2023-02-16T12:15:40.591Z,79.14
2023-02-16T12:18:34.865Z,79.04
2023-02-16T12:21:07.559Z,79.51
2023-02-16T12:23:41.615Z,79.25
2023-02-16T12:26:41.066Z,79.33
2023-02-16T12:29:27.821Z,79.10
2023-02-16T12:32:25.351Z,78.62
2023-02-16T12:35:04.478Z,78.66
2023-02-16T12:37:58.175Z,78.86
2023-02-16T12:40:48.339Z,78.02
2023-02-16T12:43:20.683Z,78.01
2023-02-16T12:45:51.593Z,78.20
2023-02-16T12:48:37.928Z,78.06
2023-02-16T12:51:15.560Z,77.76
2023-02-16T12:53:59.632Z,77.18
2023-02-16T12:56:38.827Z,76.95
2023-02-16T12:59:33.946Z,76.84
2023-02-16T13:02:12.344Z,76.93
2023-02-16T13:04:53.463Z,76.39
2023-02-16T13:07:47.602Z,75.26
2023-02-16T13:10:35.395Z,72.54
2023-02-16T13:13:24.438Z,71.01
2023-02-16T13:16:01.948Z,68.84
2023-02-16T13:18:38.920Z,65.42
2023-02-16T13:21:22.899Z,63.37
2023-02-16T13:24:26.962Z,60.85
2023-02-16T13:27:21.999Z,59.27
2023-02-16T13:30:04.890Z,56.71
2023-02-16T13:32:52.902Z,56.14
2023-02-16T13:35:41.262Z,53.23
2023-02-16T13:38:32.620Z,53.40
2023-02-16T13:41:19.728Z,51.97
2023-02-16T13:44:03.867Z,51.56
2023-02-16T13:46:41.187Z,48.46
2023-02-16T13:49:38.909Z,48.59
2023-02-16T13:52:27.878Z,48.04
2023-02-16T13:55:29.176Z,46.08
2023-02-16T13:58:16.839Z,45.68
2023-02-16T14:00:50.047Z,45.93
2023-02-16T14:03:21.742Z,45.40
2023-02-16T14:05:56.742Z,44.53
2023-02-16T14:08:31.731Z,44.21
2023-02-16T14:11:11.377Z,44.18
2023-02-16T14:13:47.698Z,44.37
2023-02-16T14:16:32.948Z,43.61
2023-02-16T14:19:22.677Z,43.71
2023-02-16T14:21:55.485Z,43.44
2023-02-16T14:24:25.194Z,43.50
2023-02-16T14:26:59.849Z,43.69
2023-02-16T14:29:48.789Z,43.31
2023-02-16T14:32:41.283Z,43.49
2023-02-16T14:35:27.715Z,43.21
2023-02-16T14:38:00.645Z,43.12
2023-02-16T14:40:41.737Z,43.18
2023-02-16T14:43:55.850Z,42.58
2023-02-16T14:46:28.390Z,43.49
2023-02-16T14:49:35.642Z,43.14
2023-02-16T14:52:05.037Z,43.92
2023-02-16T14:55:24.453Z,44.16
2023-02-16T14:58:36.736Z,43.99
2023-02-16T15:01:17.963Z,44.55
2023-02-16T15:03:55.066Z,44.92
2023-02-16T15:06:25.133Z,45.13
2023-02-16T15:09:00.683Z,45.44
2023-02-16T15:12:02.000Z,46.03
2023-02-16T15:14:45.849Z,46.66
2023-02-16T15:17:31.995Z,48.01
2023-02-16T15:20:25.286Z,48.69
2023-02-16T15:23:01.737Z,50.20
2023-02-16T15:25:34.828Z,50.46
2023-02-16T15:28:11.206Z,51.49
2023-02-16T15:30:48.911Z,53.15
2023-02-16T15:33:34.776Z,54.40
2023-02-16T15:36:13.968Z,54.87
2023-02-16T15:38:57.725Z,56.85
2023-02-16T15:41:37.857Z,57.24
2023-02-16T15:44:36.173Z,58.08
2023-02-16T15:47:18.430Z,60.99
2023-02-16T15:49:55.840Z,60.72
2023-02-16T15:52:36.207Z,61.58
2023-02-16T15:55:10.386Z,63.75
2023-02-16T15:57:41.785Z,61.82
2023-02-16T16:00:23.711Z,62.49
2023-02-16T16:02:58.860Z,64.04
2023-02-16T16:05:59.401Z,66.03
2023-02-16T16:08:30.851Z,66.72
2023-02-16T16:11:02.001Z,66.95
2023-02-16T16:13:32.949Z,67.78
2023-02-16T16:16:05.050Z,67.42
2023-02-16T16:18:39.570Z,68.50
2023-02-16T16:21:27.222Z,67.85
2023-02-16T16:24:51.803Z,68.28
2023-02-16T16:27:36.746Z,68.35
2023-02-16T16:30:24.437Z,69.11
2023-02-16T16:33:02.846Z,69.75
2023-02-16T16:35:48.583Z,70.23
2023-02-16T16:38:28.320Z,69.51
2023-02-16T16:41:03.263Z,70.43
2023-02-16T16:43:38.278Z,70.27
2023-02-16T16:46:18.637Z,69.75
2023-02-16T16:48:51.866Z,69.80
2023-02-16T16:51:24.562Z,68.80
2023-02-16T16:54:06.787Z,69.66
2023-02-16T16:56:42.295Z,72.07
2023-02-16T16:59:11.531Z,71.93
2023-02-16T17:01:41.983Z,71.85
2023-02-16T17:04:11.524Z,72.85
2023-02-16T17:06:41.782Z,71.59
2023-02-16T17:09:11.438Z,70.43
2023-02-16T17:11:41.213Z,70.47
2023-02-16T17:14:19.726Z,72.27
2023-02-16T17:16:53.468Z,72.71
2023-02-16T17:19:24.098Z,72.24
2023-02-16T17:21:53.836Z,72.28
2023-02-16T17:24:23.946Z,72.19
2023-02-16T17:26:53.595Z,71.14
2023-02-16T17:29:23.575Z,72.21
2023-02-16T17:31:52.977Z,72.46
2023-02-16T17:34:29.942Z,73.47
2023-02-16T17:37:07.932Z,73.72
2023-02-16T17:39:37.609Z,73.88
2023-02-16T17:42:12.238Z,73.88
2023-02-16T17:44:42.045Z,73.62
2023-02-16T17:47:16.562Z,74.02
2023-02-16T17:49:46.360Z,73.80
2023-02-16T17:52:16.032Z,73.39
2023-02-16T17:54:46.168Z,75.29
2023-02-16T17:57:15.951Z,75.10
2023-02-16T17:59:45.107Z,74.27
2023-02-16T18:02:14.808Z,74.09
2023-02-16T18:04:44.668Z,75.36
2023-02-16T18:07:17.593Z,75.07
2023-02-16T18:09:47.696Z,74.01
2023-02-16T18:12:18.106Z,74.48
2023-02-16T18:14:47.782Z,75.41
2023-02-16T18:17:18.286Z,74.87
2023-02-16T18:19:48.837Z,74.72
2023-02-16T18:22:18.400Z,74.79
2023-02-16T18:24:48.642Z,75.18
2023-02-16T18:27:21.790Z,74.13
2023-02-16T18:29:52.325Z,75.72
2023-02-16T18:32:22.232Z,75.82
2023-02-16T18:34:52.375Z,76.03
2023-02-16T18:37:21.544Z,75.68
2023-02-16T18:39:51.561Z,76.15
2023-02-16T18:42:21.591Z,76.04
2023-02-16T18:44:52.481Z,76.11
2023-02-16T18:47:21.674Z,76.11
2023-02-16T18:49:53.236Z,76.03
2023-02-16T18:52:23.709Z,76.29
2023-02-16T18:54:53.339Z,75.22
2023-02-16T18:57:23.316Z,74.78
2023-02-16T18:59:53.709Z,75.40
2023-02-16T19:02:23.784Z,75.91
2023-02-16T19:04:53.275Z,76.90
2023-02-16T19:07:23.244Z,76.16
2023-02-16T19:09:53.545Z,76.07
2023-02-16T19:12:23.651Z,76.68
2023-02-16T19:14:56.400Z,77.08
2023-02-16T19:17:38.141Z,77.48
2023-02-16T19:20:18.945Z,76.73
2023-02-16T19:22:52.608Z,77.12
2023-02-16T19:25:24.990Z,77.00
2023-02-16T19:27:55.165Z,76.84
2023-02-16T19:30:25.799Z,76.67
2023-02-16T19:32:56.938Z,77.90
2023-02-16T19:35:28.826Z,78.16
2023-02-16T19:38:01.596Z,77.88
2023-02-16T19:40:32.584Z,77.20
2023-02-16T19:43:02.219Z,77.29
2023-02-16T19:45:32.625Z,77.23
2023-02-16T19:48:02.936Z,76.46
2023-02-16T19:50:32.506Z,77.01
2023-02-16T19:53:01.536Z,77.62
2023-02-16T19:55:31.131Z,76.96
2023-02-16T19:58:00.483Z,77.63
2023-02-16T20:00:30.812Z,77.27
2023-02-16T20:03:01.112Z,77.04
2023-02-16T20:05:31.963Z,77.82
2023-02-16T20:08:02.778Z,79.45
2023-02-16T20:10:34.612Z,78.47
2023-02-16T20:13:06.043Z,78.30
2023-02-16T20:15:35.665Z,79.81
2023-02-16T20:18:07.705Z,79.42
2023-02-16T20:20:37.289Z,79.24
2023-02-16T20:23:09.076Z,78.38
2023-02-16T20:25:40.505Z,79.05
2023-02-16T20:28:10.954Z,78.77
2023-02-16T20:30:42.987Z,78.90
2023-02-16T20:33:12.598Z,78.10
2023-02-16T20:35:43.249Z,78.71
2023-02-16T20:38:16.734Z,78.55
2023-02-16T20:40:46.954Z,78.64
2023-02-16T20:43:19.548Z,78.66
2023-02-16T20:45:49.737Z,78.97
2023-02-16T20:48:20.407Z,78.87
2023-02-16T20:51:09.170Z,79.35
2023-02-16T20:53:50.634Z,79.12
2023-02-16T20:56:28.121Z,79.11
2023-02-16T20:58:59.220Z,78.79
2023-02-16T21:01:33.035Z,79.36
2023-02-16T21:04:35.408Z,79.53
2023-02-16T21:07:05.721Z,78.90
2023-02-16T21:09:36.083Z,79.35
2023-02-16T21:12:05.889Z,79.35
2023-02-16T21:14:35.922Z,79.11
2023-02-16T21:17:05.852Z,79.21
2023-02-16T21:19:38.450Z,79.47
2023-02-16T21:22:09.284Z,79.39
2023-02-16T21:24:41.235Z,78.62
2023-02-16T21:27:11.796Z,79.54
2023-02-16T21:29:41.463Z,80.10
2023-02-16T21:32:11.747Z,79.74
2023-02-16T21:34:41.440Z,79.07
2023-02-16T21:37:10.456Z,78.55
2023-02-16T21:40:01.551Z,79.51
2023-02-16T21:42:35.085Z,79.12
2023-02-16T21:45:14.576Z,78.25
2023-02-16T21:48:05.215Z,80.14
2023-02-16T21:50:39.428Z,79.39
2023-02-16T21:53:09.919Z,79.18
2023-02-16T21:55:59.350Z,79.72
2023-02-16T21:58:34.464Z,80.37
2023-02-16T22:01:04.313Z,80.46
2023-02-16T22:03:34.089Z,80.95
2023-02-16T22:06:07.018Z,80.68
2023-02-16T22:08:40.271Z,80.45
2023-02-16T22:11:12.300Z,80.06
2023-02-16T22:13:41.718Z,79.86
2023-02-16T22:16:14.822Z,80.85
2023-02-16T22:18:45.390Z,80.99
2023-02-16T22:21:16.650Z,80.95
2023-02-16T22:23:46.010Z,80.26
2023-02-16T22:26:42.945Z,80.61
2023-02-16T22:29:12.959Z,81.05
2023-02-16T22:31:50.050Z,80.77
2023-02-16T22:34:24.216Z,81.02
2023-02-16T22:36:53.986Z,80.55
2023-02-16T22:39:23.525Z,81.05
2023-02-16T22:41:52.503Z,80.49
2023-02-16T22:44:23.087Z,79.93
2023-02-16T22:46:55.068Z,80.49
2023-02-16T22:49:24.585Z,81.16
2023-02-16T22:51:55.170Z,81.10
2023-02-16T22:54:25.259Z,81.46
2023-02-16T22:56:59.346Z,81.95
2023-02-16T22:59:29.506Z,81.70
2023-02-16T23:01:59.986Z,81.81
2023-02-16T23:04:30.801Z,82.00
2023-02-16T23:07:00.829Z,81.85
2023-02-16T23:09:30.837Z,82.01
2023-02-16T23:12:00.397Z,81.83
2023-02-16T23:14:30.768Z,81.68
2023-02-16T23:17:00.460Z,82.55
2023-02-16T23:19:30.466Z,81.81
2023-02-16T23:22:00.992Z,81.87
2023-02-16T23:24:30.705Z,81.77
2023-02-16T23:27:00.138Z,81.95
2023-02-16T23:29:30.055Z,82.84
2023-02-16T23:31:59.715Z,84.14
2023-02-16T23:34:34.115Z,83.82
2023-02-16T23:37:03.628Z,83.11
2023-02-16T23:39:33.318Z,82.80
2023-02-16T23:42:03.364Z,83.61
2023-02-16T23:44:32.694Z,83.90
2023-02-16T23:47:03.064Z,83.96
2023-02-16T23:49:33.507Z,82.83
2023-02-16T23:52:03.283Z,82.32
2023-02-16T23:54:37.823Z,81.43
2023-02-16T23:57:08.411Z,82.02
2023-02-16T23:59:38.072Z,82.27
